Aviation Digital Data Service (ADDS)

Output produced by TAFs form (1323 UTC 23 May 2015)
found at http://aviationweather.gov/adds/tafs/
 
KLND 231123Z 2312/2412 VRB05KT P6SM VCFG SCT008 OVC025 
     FM231600 VRB05KT P6SM VCSH SCT030 BKN100 
     FM232200 VRB10G15KT P6SM VCTS SCT050CB BKN100 
     FM240200 30007KT P6SM -SHRA OVC030